Time;durP1;ratioP1;P1;durP2;ratioP2;P2;SDS_P1;SDS_P2;PMS_P1;PMS_P2;Temp;Humidity;BMP_temperature;BMP_pressure;BME280_temperature;BME280_humidity;BME280_pressure;Samples;Min_cycle;Max_cycle;Signal;HPM_P1;HPM_P2
2023/04/18 00:00:14;;;;;;;11.00;9.90;;;;;;;9.30;64.63;102951.28;6308869;27;20237;-70
2023/04/18 00:03:36;;;;;;;9.53;8.37;;;;;;;9.42;63.80;102945.16;6291180;28;21443;-69
2023/04/18 00:06:58;;;;;;;10.17;8.77;;;;;;;9.32;64.60;102947.59;6300492;27;20257;-69
2023/04/18 00:10:20;;;;;;;14.10;9.50;;;;;;;9.26;65.01;102946.22;6309895;28;20587;-70
2023/04/18 00:13:40;;;;;;;9.70;8.63;;;;;;;9.15;64.99;102945.31;6314263;27;20221;-69
2023/04/18 00:17:01;;;;;;;7.93;6.93;;;;;;;9.20;65.00;102946.69;6306556;27;20998;-69
2023/04/18 00:20:24;;;;;;;12.67;9.37;;;;;;;9.25;65.20;102946.34;6309389;27;20785;-70
2023/04/18 00:23:46;;;;;;;12.80;9.47;;;;;;;9.25;65.00;102946.34;6301634;27;20221;-70
2023/04/18 00:27:07;;;;;;;11.57;8.67;;;;;;;9.19;65.10;102944.16;6308327;27;20633;-69
2023/04/18 00:30:28;;;;;;;10.93;9.77;;;;;;;9.06;65.89;102944.16;6303481;28;21029;-69
2023/04/18 00:33:50;;;;;;;12.47;9.73;;;;;;;9.00;66.94;102943.75;6295656;27;20515;-69
2023/04/18 00:37:11;;;;;;;16.03;9.70;;;;;;;9.01;65.99;102950.72;6302147;27;20226;-69
2023/04/18 00:40:33;;;;;;;11.70;9.43;;;;;;;9.01;66.52;102956.81;6306494;27;20957;-71
2023/04/18 00:43:54;;;;;;;16.60;10.73;;;;;;;8.97;66.76;102951.88;6309761;27;20234;-69
2023/04/18 00:47:16;;;;;;;16.83;12.47;;;;;;;8.91;66.88;102943.44;6303739;27;20222;-70
2023/04/18 00:50:37;;;;;;;12.73;10.13;;;;;;;8.86;66.31;102942.91;6311125;28;20325;-69
2023/04/18 00:53:58;;;;;;;13.47;10.57;;;;;;;8.83;66.76;102943.09;6298686;28;20230;-68
2023/04/18 00:57:21;;;;;;;12.07;10.63;;;;;;;8.86;66.56;102942.06;6304340;27;20583;-69
2023/04/18 01:00:42;;;;;;;15.50;10.10;;;;;;;8.88;66.73;102941.00;6295215;27;20219;-69
2023/04/18 01:04:08;;;;;;;14.20;10.33;;;;;;;8.85;65.81;102945.63;6293637;28;20253;-69
2023/04/18 01:07:30;;;;;;;15.23;12.10;;;;;;;8.84;66.80;102947.44;6300573;27;20260;-69
2023/04/18 01:10:51;;;;;;;12.90;11.63;;;;;;;8.77;66.61;102940.06;6300531;28;20503;-69
2023/04/18 01:14:13;;;;;;;12.30;10.27;;;;;;;8.84;66.75;102943.94;6301579;28;20231;-69
2023/04/18 01:17:34;;;;;;;11.60;10.20;;;;;;;8.75;67.72;102945.44;6301563;27;20233;-69
2023/04/18 01:20:55;;;;;;;16.23;12.90;;;;;;;8.70;67.07;102950.19;6307621;27;20252;-68
2023/04/18 01:24:18;;;;;;;14.43;11.73;;;;;;;8.69;67.38;102943.22;6305583;28;20250;-69
2023/04/18 01:27:38;;;;;;;14.87;11.30;;;;;;;8.69;67.37;102951.13;6311143;27;20229;-69
2023/04/18 01:30:59;;;;;;;18.77;13.77;;;;;;;8.66;68.14;102961.00;6294734;27;20230;-69
2023/04/18 01:34:20;;;;;;;17.13;11.43;;;;;;;8.74;67.65;102956.91;6306564;28;20336;-71
2023/04/18 01:37:41;;;;;;;16.73;13.50;;;;;;;8.74;67.97;102959.56;6301854;27;20618;-69
2023/04/18 01:41:03;;;;;;;14.33;11.00;;;;;;;8.76;67.15;102951.56;6305948;28;20290;-70
2023/04/18 01:44:24;;;;;;;16.50;12.40;;;;;;;8.72;66.84;102944.81;6310073;27;20263;-70
2023/04/18 01:47:45;;;;;;;14.47;11.70;;;;;;;8.74;66.67;102954.28;6291427;27;20578;-70
2023/04/18 01:51:06;;;;;;;12.37;11.07;;;;;;;8.65;67.41;102956.69;6292287;28;20227;-70
2023/04/18 01:54:27;;;;;;;16.43;11.03;;;;;;;8.58;67.44;102946.56;6309328;27;20958;-69
2023/04/18 01:57:49;;;;;;;12.27;10.37;;;;;;;8.57;67.36;102947.53;6291412;27;20223;-70
2023/04/18 02:01:10;;;;;;;15.10;12.67;;;;;;;8.55;67.73;102944.16;6277128;27;20226;-69
2023/04/18 02:04:32;;;;;;;22.90;11.93;;;;;;;8.52;67.61;102939.13;6307501;27;20279;-70
2023/04/18 02:07:53;;;;;;;12.60;10.57;;;;;;;8.55;67.38;102931.00;6306819;27;20234;-70
2023/04/18 02:11:14;;;;;;;12.93;10.57;;;;;;;8.53;67.48;102938.16;6298665;27;20682;-70
2023/04/18 02:14:36;;;;;;;20.53;14.67;;;;;;;8.48;68.00;102940.25;6314641;28;20253;-70
2023/04/18 02:17:58;;;;;;;11.27;9.93;;;;;;;8.41;67.82;102938.97;6298179;27;20234;-70
2023/04/18 02:21:20;;;;;;;14.03;12.10;;;;;;;8.33;67.46;102941.28;6297327;28;20233;-68
2023/04/18 02:24:42;;;;;;;14.87;10.67;;;;;;;8.24;67.82;102939.22;6314321;27;20325;-70
2023/04/18 02:28:03;;;;;;;12.83;10.50;;;;;;;8.25;68.86;102943.56;6318689;27;20233;-69
2023/04/18 02:31:26;;;;;;;14.03;12.23;;;;;;;8.27;68.54;102936.41;6306309;27;20298;-70
2023/04/18 02:34:47;;;;;;;18.43;10.90;;;;;;;8.24;68.69;102936.59;6311542;27;20489;-70
2023/04/18 02:38:10;;;;;;;17.27;11.43;;;;;;;8.14;68.76;102931.09;6299119;28;20234;-69
2023/04/18 02:41:33;;;;;;;20.60;12.20;;;;;;;8.08;69.53;102935.94;6315029;27;20319;-70
2023/04/18 02:44:54;;;;;;;17.23;12.50;;;;;;;8.11;69.41;102933.97;6312529;28;20375;-69
2023/04/18 02:48:17;;;;;;;24.93;12.97;;;;;;;8.00;69.81;102940.84;6297828;27;20217;-68
2023/04/18 02:51:39;;;;;;;17.90;12.17;;;;;;;8.00;69.95;102933.81;6290380;27;20563;-69
2023/04/18 02:55:00;;;;;;;14.77;10.80;;;;;;;7.93;69.90;102937.75;6303099;28;20590;-69
2023/04/18 02:58:27;;;;;;;15.37;11.03;;;;;;;7.92;69.98;102932.59;6287056;28;20226;-69
2023/04/18 03:02:09;;;;;;;16.10;11.80;;;;;;;7.95;69.81;102935.88;6291223;28;20552;-70
2023/04/18 03:05:38;;;;;;;14.83;11.13;;;;;;;7.86;70.05;102939.97;6302536;28;20222;-69
2023/04/18 03:09:00;;;;;;;12.53;10.77;;;;;;;7.94;69.88;102935.97;6301980;28;20305;-70
2023/04/18 03:12:22;;;;;;;14.80;9.63;;;;;;;7.91;70.42;102949.34;6306749;28;20234;-70
2023/04/18 03:15:43;;;;;;;12.13;9.80;;;;;;;7.95;70.31;102941.13;6304201;28;20329;-69
2023/04/18 03:19:05;;;;;;;15.77;10.47;;;;;;;7.94;70.75;102947.34;6277478;28;20612;-70
2023/04/18 03:22:28;;;;;;;17.40;11.60;;;;;;;7.94;70.05;102949.13;6311377;28;20230;-69
2023/04/18 03:25:51;;;;;;;12.37;10.30;;;;;;;7.87;70.94;102951.34;6288149;28;20218;-69
2023/04/18 03:29:13;;;;;;;13.63;11.10;;;;;;;7.87;70.74;102944.28;6316086;28;20218;-69
2023/04/18 03:32:37;;;;;;;11.97;9.93;;;;;;;7.92;69.69;102957.13;6294439;28;20995;-69
2023/04/18 03:35:58;;;;;;;12.73;9.43;;;;;;;7.80;70.46;102956.13;6293802;28;20234;-69
2023/04/18 03:39:20;;;;;;;12.37;10.67;;;;;;;7.84;69.92;102967.31;6296986;28;20222;-69
2023/04/18 03:42:41;;;;;;;12.30;9.97;;;;;;;7.65;71.14;102964.16;6296695;28;20221;-69
2023/04/18 03:46:04;;;;;;;14.37;11.10;;;;;;;7.61;71.12;102974.03;6300604;28;20651;-69
2023/04/18 03:49:26;;;;;;;11.30;9.50;;;;;;;7.55;70.96;102970.00;6295500;28;20322;-69
2023/04/18 03:52:47;;;;;;;16.03;10.07;;;;;;;7.51;71.61;102972.91;6299840;28;20238;-70
2023/04/18 03:56:12;;;;;;;14.57;9.67;;;;;;;7.61;70.92;102976.66;6291741;28;20238;-70
2023/04/18 03:59:45;;;;;;;12.83;9.60;;;;;;;7.54;70.64;102976.19;6295523;28;20231;-70
2023/04/18 04:03:06;;;;;;;17.80;13.13;;;;;;;7.51;70.75;102975.53;6294773;28;20257;-70
2023/04/18 04:06:27;;;;;;;17.93;16.17;;;;;;;7.50;70.68;102974.69;6290862;28;20626;-69
2023/04/18 04:09:49;;;;;;;18.13;13.40;;;;;;;7.46;71.00;102980.22;6300771;28;20325;-69
2023/04/18 04:13:11;;;;;;;17.13;11.40;;;;;;;7.50;70.96;102986.97;6300485;28;20237;-70
2023/04/18 04:16:34;;;;;;;11.73;8.60;;;;;;;7.60;69.60;102987.25;6303670;27;20226;-69
2023/04/18 04:19:56;;;;;;;11.33;9.27;;;;;;;7.57;70.61;102987.44;6301960;28;20542;-69
2023/04/18 04:23:17;;;;;;;11.67;8.63;;;;;;;7.58;69.91;102987.34;6303674;27;20242;-69
2023/04/18 04:26:41;;;;;;;13.67;8.33;;;;;;;7.57;70.18;102990.06;6289185;27;20296;-70
2023/04/18 04:30:09;;;;;;;10.03;8.97;;;;;;;7.51;69.69;102988.66;6296720;28;20227;-70
2023/04/18 04:33:32;;;;;;;12.60;8.53;;;;;;;7.52;69.48;102987.72;6281058;28;20234;-70
2023/04/18 04:36:54;;;;;;;13.90;8.40;;;;;;;7.55;69.07;102995.44;6307183;27;20507;-70
2023/04/18 04:40:17;;;;;;;10.33;8.37;;;;;;;7.51;69.14;103004.44;6298077;28;20226;-70
2023/04/18 04:43:45;;;;;;;10.63;8.40;;;;;;;7.55;68.77;103001.53;6271835;27;20223;-70
2023/04/18 04:47:10;;;;;;;7.60;6.87;;;;;;;7.58;69.02;103015.41;6304897;27;20603;-70
2023/04/18 04:50:33;;;;;;;10.90;7.80;;;;;;;7.63;68.24;103013.34;6296633;28;20230;-69
2023/04/18 04:53:54;;;;;;;8.63;7.40;;;;;;;7.59;68.13;103014.47;6316689;27;20234;-69
2023/04/18 04:57:15;;;;;;;10.17;7.80;;;;;;;7.60;67.58;103017.00;6295324;27;20233;-70
2023/04/18 05:00:36;;;;;;;7.90;6.53;;;;;;;7.63;68.35;103013.34;6293445;28;20650;-70
2023/04/18 05:03:58;;;;;;;8.07;6.97;;;;;;;7.67;68.13;103015.69;6301347;27;20502;-70
2023/04/18 05:07:19;;;;;;;7.80;6.33;;;;;;;7.71;67.06;103014.53;6290818;27;20243;-70
2023/04/18 05:10:40;;;;;;;8.43;7.57;;;;;;;7.67;66.91;103020.09;6305180;27;20250;-69
2023/04/18 05:14:01;;;;;;;8.87;7.03;;;;;;;7.77;66.44;103016.78;6306340;27;20230;-69
2023/04/18 05:17:22;;;;;;;13.23;6.50;;;;;;;7.87;66.66;103020.53;6293167;28;20223;-72
2023/04/18 05:20:44;;;;;;;10.67;7.03;;;;;;;7.86;66.46;103015.38;6281226;28;20226;-69
2023/04/18 05:24:05;;;;;;;7.60;6.80;;;;;;;7.95;66.15;103029.69;6284638;28;20229;-71
2023/04/18 05:27:26;;;;;;;12.97;8.13;;;;;;;7.97;66.05;103025.19;6302836;27;20225;-71
2023/04/18 05:30:47;;;;;;;6.90;5.70;;;;;;;7.95;66.06;103029.69;6303050;28;20218;-67
2023/04/18 05:34:07;;;;;;;7.40;5.40;;;;;;;7.94;66.14;103033.28;6304770;28;20234;-69
2023/04/18 05:37:30;;;;;;;10.00;9.07;;;;;;;7.97;65.56;103041.81;6298628;27;20310;-68
2023/04/18 05:40:50;;;;;;;9.93;6.40;;;;;;;8.00;64.92;103028.47;6300931;28;20221;-70
2023/04/18 05:44:11;;;;;;;6.03;4.90;;;;;;;8.12;64.99;103035.59;6299627;28;20246;-70
2023/04/18 05:47:32;;;;;;;10.57;6.33;;;;;;;8.13;64.21;103039.06;6294828;27;20626;-70
2023/04/18 05:50:53;;;;;;;7.83;6.03;;;;;;;8.15;64.11;103030.09;6283542;27;20348;-69
2023/04/18 05:54:15;;;;;;;7.50;5.70;;;;;;;8.22;64.13;103035.81;6293789;27;20230;-70
2023/04/18 05:57:37;;;;;;;8.53;6.43;;;;;;;8.46;63.18;103039.53;6283991;27;20234;-69
2023/04/18 06:00:57;;;;;;;5.17;4.67;;;;;;;8.44;63.29;103035.31;6282386;28;20237;-70
2023/04/18 06:04:19;;;;;;;7.67;5.67;;;;;;;8.55;61.93;103041.56;6299265;28;20234;-69
2023/04/18 06:07:40;;;;;;;11.33;5.10;;;;;;;8.57;61.89;103049.34;6287877;27;20623;-68
2023/04/18 06:11:03;;;;;;;6.87;5.43;;;;;;;8.56;61.54;103045.88;6285598;28;20473;-69
2023/04/18 06:14:24;;;;;;;10.60;7.60;;;;;;;8.68;61.23;103044.22;6288971;28;20234;-71
2023/04/18 06:17:45;;;;;;;11.33;5.20;;;;;;;8.75;61.15;103052.56;6296657;27;20619;-70
2023/04/18 06:21:06;;;;;;;8.23;5.50;;;;;;;8.78;59.88;103055.00;6290871;28;20632;-72
2023/04/18 06:24:27;;;;;;;7.90;5.63;;;;;;;8.89;60.15;103063.84;6288911;28;20254;-70
2023/04/18 06:27:49;;;;;;;7.63;5.23;;;;;;;8.77;60.24;103058.56;6300552;27;20303;-70
2023/04/18 06:31:10;;;;;;;5.73;4.87;;;;;;;8.76;60.13;103056.88;6292813;28;20222;-70
2023/04/18 06:34:31;;;;;;;6.20;4.30;;;;;;;9.01;59.70;103059.56;6298243;27;20237;-71
2023/04/18 06:37:52;;;;;;;8.53;4.67;;;;;;;9.10;58.09;103063.34;6299880;28;20221;-69
2023/04/18 06:41:13;;;;;;;7.07;4.70;;;;;;;9.29;57.06;103062.91;6282814;28;20221;-71
2023/04/18 06:44:35;;;;;;;6.03;5.37;;;;;;;9.45;57.02;103056.50;6307004;28;20230;-73
2023/04/18 06:47:58;;;;;;;5.50;4.80;;;;;;;9.35;55.90;103052.81;6297418;27;20234;-70
2023/04/18 06:51:19;;;;;;;10.93;5.90;;;;;;;9.31;56.46;103045.22;6280824;27;20230;-71
2023/04/18 06:54:40;;;;;;;4.80;3.83;;;;;;;9.57;56.12;103053.00;6303233;27;20241;-70
2023/04/18 06:58:01;;;;;;;4.63;4.23;;;;;;;9.75;55.55;103071.09;6289152;28;20234;-70
2023/04/18 07:01:23;;;;;;;4.93;4.53;;;;;;;9.90;54.80;103051.56;6281357;28;20234;-71
2023/04/18 07:04:44;;;;;;;6.37;4.80;;;;;;;9.85;55.30;103061.59;6308155;28;20234;-70
2023/04/18 07:08:05;;;;;;;7.77;5.67;;;;;;;10.03;55.29;103072.63;6305387;28;20599;-70
2023/04/18 07:11:26;;;;;;;5.43;4.93;;;;;;;10.17;54.76;103069.81;6299605;28;20597;-70
2023/04/18 07:14:47;;;;;;;3.93;3.63;;;;;;;10.23;54.98;103075.53;6306910;28;20234;-70
2023/04/18 07:18:09;;;;;;;7.23;5.67;;;;;;;10.17;54.48;103068.03;6285327;28;20584;-70
2023/04/18 07:21:30;;;;;;;7.27;5.13;;;;;;;10.16;55.12;103076.06;6295884;28;20233;-71
2023/04/18 07:24:51;;;;;;;5.33;4.27;;;;;;;10.52;54.92;103069.91;6307414;28;20226;-71
2023/04/18 07:28:11;;;;;;;5.57;4.10;;;;;;;10.13;55.71;103066.59;6293939;28;20217;-68
2023/04/18 07:31:34;;;;;;;6.03;4.60;;;;;;;10.52;55.62;103060.22;6291516;28;20230;-70
2023/04/18 07:34:56;;;;;;;5.33;4.07;;;;;;;10.63;55.87;103070.78;6305889;28;21298;-70
2023/04/18 07:38:17;;;;;;;6.73;4.00;;;;;;;11.01;54.63;103060.97;6297745;28;20223;-69
2023/04/18 07:41:38;;;;;;;6.87;4.30;;;;;;;11.34;55.81;103068.94;6294187;28;20225;-71
2023/04/18 07:44:59;;;;;;;18.17;5.07;;;;;;;11.61;53.13;103060.66;6311300;28;20234;-70
2023/04/18 07:48:21;;;;;;;5.87;4.83;;;;;;;11.77;52.51;103061.13;6297287;28;20617;-70
2023/04/18 07:51:43;;;;;;;4.60;4.20;;;;;;;11.78;51.60;103059.34;6286358;28;20229;-73
2023/04/18 07:55:04;;;;;;;4.83;4.40;;;;;;;11.92;51.87;103049.34;6315763;28;20321;-71
2023/04/18 07:58:25;;;;;;;4.40;4.07;;;;;;;11.80;51.72;103060.91;6309364;27;20236;-69
2023/04/18 08:01:45;;;;;;;6.17;3.50;;;;;;;12.00;51.86;103059.28;6304529;27;20225;-70
2023/04/18 08:05:08;;;;;;;4.87;4.30;;;;;;;12.22;50.94;103053.94;6316507;27;20254;-68
2023/04/18 08:08:30;;;;;;;5.77;5.27;;;;;;;12.31;51.17;103052.38;6310600;28;20222;-70
2023/04/18 08:11:51;;;;;;;6.00;4.60;;;;;;;12.44;50.48;103055.69;6300225;27;20582;-71
2023/04/18 08:15:12;;;;;;;4.23;3.80;;;;;;;12.27;50.67;103051.78;6306002;27;20640;-72
2023/04/18 08:18:32;;;;;;;6.97;3.27;;;;;;;12.31;50.85;103052.38;6300777;28;20521;-69
2023/04/18 08:21:53;;;;;;;6.33;3.87;;;;;;;12.28;50.76;103042.88;6298636;28;20222;-69
2023/04/18 08:25:16;;;;;;;5.43;4.77;;;;;;;11.89;51.68;103044.31;6311173;28;20623;-70
2023/04/18 08:28:37;;;;;;;4.80;3.97;;;;;;;12.04;51.99;103044.00;6305653;27;20329;-70
2023/04/18 08:31:57;;;;;;;6.53;4.07;;;;;;;11.92;52.69;103048.50;6297546;27;20761;-72
2023/04/18 08:35:19;;;;;;;3.77;3.27;;;;;;;12.23;51.72;103060.94;6300051;28;20230;-69
2023/04/18 08:38:40;;;;;;;7.57;3.80;;;;;;;12.39;50.49;103057.03;6301933;27;20235;-72
2023/04/18 08:42:03;;;;;;;4.97;4.13;;;;;;;12.12;51.55;103066.28;6305518;27;20230;-73
2023/04/18 08:45:25;;;;;;;3.93;3.63;;;;;;;12.18;51.82;103062.28;6313343;27;20226;-74
2023/04/18 08:48:48;;;;;;;7.37;5.37;;;;;;;11.80;52.56;103068.84;6313521;27;20231;-70
2023/04/18 08:52:11;;;;;;;4.83;3.50;;;;;;;11.67;53.09;103065.47;6297938;28;20225;-71
2023/04/18 08:55:32;;;;;;;4.60;3.63;;;;;;;11.60;53.66;103067.75;6313104;28;20301;-71
2023/04/18 08:58:54;;;;;;;4.87;3.33;;;;;;;11.72;53.13;103065.09;6301263;27;20225;-70
2023/04/18 09:02:18;;;;;;;4.03;3.30;;;;;;;11.98;52.01;103061.22;6271385;27;20270;-69
2023/04/18 09:05:39;;;;;;;5.63;4.13;;;;;;;12.30;51.62;103067.41;6291115;27;20565;-71
2023/04/18 09:09:02;;;;;;;6.10;5.53;;;;;;;12.47;51.35;103068.66;6307717;27;20518;-71
2023/04/18 09:12:25;;;;;;;7.77;4.43;;;;;;;12.49;51.16;103072.03;6321838;27;20226;-70
2023/04/18 09:15:54;;;;;;;7.43;5.73;;;;;;;12.44;51.83;103071.56;6312175;28;20259;-71
2023/04/18 09:19:17;;;;;;;4.77;4.20;;;;;;;12.69;51.75;103070.38;6319315;28;20226;-70
2023/04/18 09:22:46;;;;;;;8.07;4.53;;;;;;;12.84;51.04;103068.28;6312303;27;20221;-71
2023/04/18 09:26:07;;;;;;;6.57;4.60;;;;;;;12.87;50.88;103073.34;6305907;28;20316;-71
2023/04/18 09:29:45;;;;;;;5.87;4.27;;;;;;;12.44;50.75;103071.56;6319076;27;20238;-71
2023/04/18 09:33:09;;;;;;;6.80;5.00;;;;;;;12.02;51.93;103069.75;6308602;27;20225;-71
2023/04/18 09:36:31;;;;;;;5.07;4.47;;;;;;;11.86;52.26;103068.34;6305161;27;20230;-70
2023/04/18 09:39:52;;;;;;;4.87;4.17;;;;;;;11.75;52.38;103070.16;6320685;27;20500;-71
2023/04/18 09:43:20;;;;;;;5.23;4.30;;;;;;;11.53;52.70;103077.09;6309564;27;20457;-71
2023/04/18 09:46:41;;;;;;;4.50;4.13;;;;;;;11.75;52.81;103072.81;6297119;27;20224;-71
2023/04/18 09:50:05;;;;;;;3.80;3.50;;;;;;;11.64;52.38;103076.28;6321477;27;20235;-71
2023/04/18 09:53:28;;;;;;;4.30;3.37;;;;;;;11.90;53.00;103077.75;6306318;27;20226;-71
2023/04/18 09:56:52;;;;;;;4.80;3.97;;;;;;;11.73;52.23;103080.84;6305364;28;20241;-72
2023/04/18 10:00:19;;;;;;;4.63;4.17;;;;;;;11.62;52.95;103076.41;6313812;28;20226;-71
2023/04/18 10:03:45;;;;;;;4.00;3.57;;;;;;;11.45;53.58;103070.75;6319865;27;20553;-71
2023/04/18 10:07:07;;;;;;;4.43;4.03;;;;;;;11.41;53.70;103071.94;6310255;27;20230;-72
2023/04/18 10:10:29;;;;;;;3.33;3.03;;;;;;;11.91;53.14;103068.00;6319840;28;20611;-70
2023/04/18 10:13:55;;;;;;;5.67;4.03;;;;;;;12.11;52.17;103071.69;6307978;27;20231;-71
2023/04/18 10:17:16;;;;;;;4.17;2.77;;;;;;;12.07;52.13;103063.16;6308071;28;20623;-71
2023/04/18 10:20:37;;;;;;;5.13;3.77;;;;;;;12.24;51.70;103067.91;6319339;28;20234;-71
2023/04/18 10:23:59;;;;;;;4.03;3.10;;;;;;;12.63;49.80;103058.50;6305972;28;20238;-72
2023/04/18 10:27:58;;;;;;;3.90;3.60;;;;;;;13.26;47.91;103066.47;6312766;27;20241;-71
2023/04/18 10:31:20;;;;;;;5.67;4.10;;;;;;;13.05;46.58;103055.03;6300806;28;20234;-71
2023/04/18 10:34:41;;;;;;;3.27;2.13;;;;;;;13.50;46.47;103066.19;6306988;27;20599;-72
2023/04/18 10:38:02;;;;;;;3.57;3.27;;;;;;;13.51;45.46;103057.25;6290652;27;20238;-69
2023/04/18 10:41:26;;;;;;;4.10;3.10;;;;;;;13.20;45.99;103059.03;6289004;28;20256;-70
2023/04/18 10:45:16;;;;;;;7.50;3.67;;;;;;;12.82;47.82;103062.25;6306613;27;20235;-70
2023/04/18 10:48:39;;;;;;;4.83;4.17;;;;;;;12.78;48.36;103063.50;6297247;27;20261;-70
2023/04/18 10:52:01;;;;;;;4.30;2.63;;;;;;;12.74;47.71;103060.25;6287038;27;20417;-70
2023/04/18 10:55:28;;;;;;;3.40;3.10;;;;;;;12.85;47.43;103054.06;6281196;27;20238;-69
2023/04/18 10:58:52;;;;;;;2.67;2.47;;;;;;;12.59;47.82;103057.06;6292246;27;20249;-69
2023/04/18 11:02:23;;;;;;;5.03;3.13;;;;;;;12.45;48.07;103057.34;6301246;28;20222;-70
2023/04/18 11:05:44;;;;;;;3.87;2.77;;;;;;;12.56;48.88;103067.09;6315679;28;20229;-70
2023/04/18 11:09:12;;;;;;;4.77;3.10;;;;;;;12.48;49.37;103067.72;6311686;28;20494;-70
2023/04/18 11:12:34;;;;;;;3.80;3.13;;;;;;;12.37;50.40;103059.81;6302184;28;20498;-69
2023/04/18 11:15:57;;;;;;;3.87;3.60;;;;;;;12.47;50.33;103066.03;6314266;28;20225;-69
2023/04/18 11:19:19;;;;;;;4.33;3.23;;;;;;;12.54;51.21;103053.13;6304737;28;20231;-69
2023/04/18 11:22:45;;;;;;;6.97;5.30;;;;;;;12.53;52.10;103059.38;6301355;28;20241;-70
2023/04/18 11:26:07;;;;;;;4.93;4.50;;;;;;;12.72;52.40;103054.22;6303657;28;20230;-71
2023/04/18 11:29:30;;;;;;;4.83;3.83;;;;;;;13.01;50.89;103054.44;6305035;28;20226;-68
2023/04/18 11:32:53;;;;;;;4.97;3.93;;;;;;;13.38;49.63;103053.97;6312490;27;20226;-70
2023/04/18 11:36:14;;;;;;;4.70;3.30;;;;;;;13.66;48.49;103053.25;6289669;28;20230;-69
2023/04/18 11:39:41;;;;;;;4.80;2.87;;;;;;;13.27;48.19;103058.38;6305623;27;20273;-71
2023/04/18 11:43:04;;;;;;;4.97;3.50;;;;;;;13.48;48.19;103062.81;6299862;28;20229;-70
2023/04/18 11:46:37;;;;;;;3.37;3.13;;;;;;;13.15;47.72;103061.22;6303538;28;20553;-70
2023/04/18 11:50:01;;;;;;;3.13;2.83;;;;;;;13.11;48.32;103065.94;6304025;27;20522;-71
2023/04/18 11:53:33;;;;;;;3.67;2.57;;;;;;;13.35;47.70;103057.72;6306582;27;20237;-70
2023/04/18 11:56:54;;;;;;;4.67;2.40;;;;;;;13.33;48.04;103063.16;6298521;27;20250;-71
2023/04/18 12:00:15;;;;;;;5.93;3.50;;;;;;;13.85;47.14;103058.59;6301970;27;20505;-68
2023/04/18 12:03:36;;;;;;;2.93;2.73;;;;;;;13.87;47.01;103055.81;6305832;27;20242;-70
2023/04/18 12:07:01;;;;;;;4.63;3.70;;;;;;;14.11;46.06;103056.28;6277554;27;20226;-71
2023/04/18 12:10:28;;;;;;;3.07;2.87;;;;;;;14.62;45.06;103042.78;6292898;27;20510;-71
2023/04/18 12:13:49;;;;;;;4.33;3.97;;;;;;;14.67;45.20;103048.53;6313613;27;20327;-71
2023/04/18 12:17:12;;;;;;;3.57;2.83;;;;;;;14.73;44.69;103047.09;6304827;28;20606;-72
2023/04/18 12:20:35;;;;;;;3.70;3.27;;;;;;;14.73;44.57;103044.44;6309900;28;20223;-70
2023/04/18 12:23:58;;;;;;;5.43;4.87;;;;;;;14.99;43.96;103061.47;6311882;27;20253;-70
2023/04/18 12:27:19;;;;;;;4.33;2.30;;;;;;;15.90;42.42;103040.41;6288874;28;21399;-72
2023/04/18 12:30:41;;;;;;;7.57;3.17;;;;;;;16.05;41.34;103031.72;6298846;27;20222;-71
2023/04/18 12:34:02;;;;;;;3.43;2.93;;;;;;;15.48;42.66;103032.88;6305372;27;20234;-70
2023/04/18 12:37:24;;;;;;;6.80;4.20;;;;;;;15.04;43.39;103048.59;6303898;27;20233;-69
2023/04/18 12:40:46;;;;;;;2.87;2.67;;;;;;;15.19;42.92;103046.28;6313965;28;20360;-71
2023/04/18 12:44:07;;;;;;;4.77;3.13;;;;;;;15.28;43.15;103034.78;6320212;27;20250;-71
2023/04/18 12:47:27;;;;;;;3.43;3.13;;;;;;;15.37;42.90;103041.03;6299257;28;20234;-69
2023/04/18 12:50:48;;;;;;;3.57;2.27;;;;;;;15.33;42.69;103047.66;6307272;28;20234;-70
2023/04/18 12:54:09;;;;;;;2.43;2.23;;;;;;;16.76;39.79;103028.22;6307435;27;20254;-72
2023/04/18 12:57:32;;;;;;;3.97;2.77;;;;;;;16.66;39.51;103036.34;6307137;28;20234;-69
2023/04/18 13:00:52;;;;;;;4.17;3.17;;;;;;;17.14;38.95;103034.16;6303349;27;20227;-71
2023/04/18 13:04:14;;;;;;;2.83;2.63;;;;;;;16.40;39.63;103028.25;6316304;28;20609;-70
2023/04/18 13:07:39;;;;;;;3.20;2.10;;;;;;;16.67;39.79;103024.69;6317195;28;20218;-71
2023/04/18 13:11:00;;;;;;;3.93;3.63;;;;;;;16.23;40.55;103025.59;6306137;28;20230;-70
2023/04/18 13:14:22;;;;;;;3.17;2.93;;;;;;;16.58;39.66;103019.38;6312965;28;20467;-70
2023/04/18 13:17:44;;;;;;;2.17;1.97;;;;;;;18.74;35.46;103010.69;6302232;27;20313;-70
2023/04/18 13:21:05;;;;;;;3.43;3.10;;;;;;;21.97;29.26;102999.34;6298344;28;20866;-72
2023/04/18 13:24:26;;;;;;;2.92;2.70;;;;;;;21.79;29.00;103012.41;6294200;28;20517;-70
2023/04/18 13:27:48;;;;;;;2.85;2.13;;;;;;;24.06;25.90;103005.44;6311717;27;20605;-69
2023/04/18 13:31:11;;;;;;;2.33;2.10;;;;;;;21.48;29.45;103009.97;6307312;28;20230;-71
2023/04/18 13:34:33;;;;;;;4.15;3.35;;;;;;;19.06;33.35;103012.44;6306581;28;20305;-70
2023/04/18 13:37:54;;;;;;;3.28;2.65;;;;;;;17.40;37.25;103011.75;6298911;27;20233;-73
2023/04/18 13:41:15;;;;;;;5.47;1.90;;;;;;;17.46;38.14;103015.63;6300175;27;20313;-71
2023/04/18 13:44:37;;;;;;;3.57;3.27;;;;;;;17.65;37.32;103019.88;6301823;27;20737;-70
2023/04/18 13:48:01;;;;;;;3.50;2.83;;;;;;;17.45;38.00;103008.59;6308961;27;20234;-69
2023/04/18 13:51:22;;;;;;;3.03;2.50;;;;;;;17.55;37.82;103009.31;6291383;28;20238;-67
2023/04/18 13:54:43;;;;;;;3.80;2.97;;;;;;;16.23;40.40;103004.28;6317115;27;20623;-70
2023/04/18 13:58:04;;;;;;;3.87;3.47;;;;;;;16.23;41.52;103007.78;6306792;27;20563;-71
2023/04/18 14:01:25;;;;;;;3.57;3.27;;;;;;;16.04;42.10;103002.63;6282775;27;20311;-71
2023/04/18 14:04:47;;;;;;;5.33;3.37;;;;;;;15.69;42.47;103011.38;6319078;27;20252;-72
2023/04/18 14:08:08;;;;;;;3.83;3.47;;;;;;;15.78;42.65;102996.34;6311058;27;20230;-72
2023/04/18 14:11:29;;;;;;;3.53;2.97;;;;;;;15.85;42.46;102995.56;6311787;27;20560;-69
2023/04/18 14:14:49;;;;;;;2.77;2.57;;;;;;;15.83;43.02;103010.03;6308194;27;20255;-72
2023/04/18 14:18:10;;;;;;;3.33;2.57;;;;;;;15.85;42.88;103008.03;6309023;28;20234;-72
2023/04/18 14:21:32;;;;;;;4.13;3.13;;;;;;;15.56;43.87;103008.25;6300343;28;20234;-71
2023/04/18 14:24:55;;;;;;;5.23;3.03;;;;;;;15.34;44.11;103009.44;6313525;27;20231;-71
2023/04/18 14:28:22;;;;;;;5.80;3.27;;;;;;;15.29;44.66;103001.88;6311213;27;20225;-71
2023/04/18 14:31:43;;;;;;;4.00;3.30;;;;;;;15.81;43.63;103006.69;6292252;27;20241;-70
2023/04/18 14:35:05;;;;;;;3.30;2.50;;;;;;;16.62;42.15;102997.59;6289757;28;20245;-73
2023/04/18 14:38:28;;;;;;;3.47;3.17;;;;;;;16.76;41.38;103001.56;6267348;27;20234;-74
2023/04/18 14:41:48;;;;;;;5.20;3.43;;;;;;;16.16;42.63;103009.38;6267308;28;20226;-74
2023/04/18 14:45:11;;;;;;;3.77;3.47;;;;;;;15.29;44.66;103015.19;6291884;27;20615;-76
2023/04/18 14:48:31;;;;;;;3.33;2.57;;;;;;;15.36;44.86;103005.63;6287306;27;20312;-74
2023/04/18 14:51:52;;;;;;;2.90;2.57;;;;;;;15.21;45.74;103009.75;6276969;27;20249;-74
2023/04/18 14:55:14;;;;;;;4.17;3.03;;;;;;;15.24;45.56;103013.94;6290602;27;20589;-74
2023/04/18 14:58:35;;;;;;;3.87;3.33;;;;;;;15.28;45.54;103015.34;6289665;27;20227;-74
2023/04/18 15:01:56;;;;;;;3.53;2.77;;;;;;;15.13;45.65;103012.31;6287046;28;20967;-75
2023/04/18 15:05:17;;;;;;;2.90;2.53;;;;;;;15.19;45.69;103006.38;6306973;28;20219;-75
2023/04/18 15:08:38;;;;;;;4.17;3.87;;;;;;;15.24;46.11;102998.81;6295683;27;20231;-75
2023/04/18 15:12:01;;;;;;;3.80;3.27;;;;;;;14.70;47.38;102991.56;6286601;28;20485;-75
2023/04/18 15:15:24;;;;;;;4.57;3.27;;;;;;;15.01;47.15;103001.00;6287368;28;20230;-75
2023/04/18 15:18:44;;;;;;;3.40;3.10;;;;;;;15.04;47.02;102998.06;6290055;28;20316;-75
2023/04/18 15:22:05;;;;;;;3.67;2.93;;;;;;;14.74;47.35;102997.41;6284127;28;20229;-75
2023/04/18 15:25:28;;;;;;;9.27;3.43;;;;;;;14.60;48.20;103002.22;6291029;28;20227;-75
2023/04/18 15:28:53;;;;;;;4.80;3.10;;;;;;;14.87;47.36;103000.63;6286654;28;20322;-74
2023/04/18 15:32:14;;;;;;;4.07;2.93;;;;;;;14.86;47.35;102997.13;6285725;28;20228;-74
2023/04/18 15:35:35;;;;;;;8.70;3.63;;;;;;;14.72;48.19;102994.91;6294394;28;20314;-74
2023/04/18 15:38:56;;;;;;;4.47;2.97;;;;;;;14.83;47.98;103004.56;6305984;28;20246;-74